地図

経路データ

SID SEASON NUMBER BASIN SUBBASIN NAME ISO_TIME NATURE LAT LON WMO_WIND WMO_PRES WMO_AGENCY TRACK_TYPE DIST2LAND LANDFALL IFLAG USA_AGENCY USA_ATCF_ID USA_LAT USA_LON USA_RECORD USA_STATUS USA_WIND USA_PRES USA_SSHS USA_R34_NE USA_R34_SE USA_R34_SW USA_R34_NW USA_R50_NE USA_R50_SE USA_R50_SW USA_R50_NW USA_R64_NE USA_R64_SE USA_R64_SW USA_R64_NW USA_POCI USA_ROCI USA_RMW USA_EYE TOKYO_LAT TOKYO_LON TOKYO_GRADE TOKYO_WIND TOKYO_PRES TOKYO_R50_DIR TOKYO_R50_LONG TOKYO_R50_SHORT TOKYO_R30_DIR TOKYO_R30_LONG TOKYO_R30_SHORT TOKYO_LAND CMA_LAT CMA_LON CMA_CAT CMA_WIND CMA_PRES HKO_LAT HKO_LON HKO_CAT HKO_WIND HKO_PRES NEWDELHI_LAT NEWDELHI_LON NEWDELHI_GRADE NEWDELHI_WIND NEWDELHI_PRES NEWDELHI_CI NEWDELHI_DP NEWDELHI_POCI REUNION_LAT REUNION_LON REUNION_TYPE REUNION_WIND REUNION_PRES REUNION_TNUM REUNION_CI REUNION_RMW REUNION_R34_NE REUNION_R34_SE REUNION_R34_SW REUNION_R34_NW REUNION_R50_NE REUNION_R50_SE REUNION_R50_SW REUNION_R50_NW REUNION_R64_NE REUNION_R64_SE REUNION_R64_SW REUNION_R64_NW BOM_LAT BOM_LON BOM_TYPE BOM_WIND BOM_PRES BOM_TNUM BOM_CI BOM_RMW BOM_R34_NE BOM_R34_SE BOM_R34_SW BOM_R34_NW BOM_R50_NE BOM_R50_SE BOM_R50_SW BOM_R50_NW BOM_R64_NE BOM_R64_SE BOM_R64_SW BOM_R64_NW BOM_ROCI BOM_POCI BOM_EYE BOM_POS_METHOD BOM_PRES_METHOD NADI_LAT NADI_LON NADI_CAT NADI_WIND NADI_PRES WELLINGTON_LAT WELLINGTON_LON WELLINGTON_WIND WELLINGTON_PRES DS824_LAT DS824_LON DS824_STAGE DS824_WIND DS824_PRES TD9636_LAT TD9636_LON TD9636_STAGE TD9636_WIND TD9636_PRES TD9635_LAT TD9635_LON TD9635_WIND TD9635_PRES TD9635_ROCI NEUMANN_LAT NEUMANN_LON NEUMANN_CLASS NEUMANN_WIND NEUMANN_PRES MLC_LAT MLC_LON MLC_CLASS MLC_WIND MLC_PRES USA_GUST BOM_GUST BOM_GUST_PER REUNION_GUST REUNION_GUST_PER USA_SEAHGT USA_SEARAD_NE USA_SEARAD_SE USA_SEARAD_SW USA_SEARAD_NW STORM_SPEED STORM_DIR
1968288N14280 1968 104 NA CS GLADYS 1968-10-13 12:00:00 TS 14.0000 -80.5000 25 hurdat_atl main 293 269 O_____________ hurdat_atl AL141968 14.0000 -80.5000 TD 25 -1 7 327
1968288N14280 1968 104 NA CS GLADYS 1968-10-13 15:00:00 TS 14.2775 -80.6850 main 269 240 P_____________ AL141968 14.2775 -80.6850 TD 25 -1 7 327
1968288N14280 1968 104 NA CS GLADYS 1968-10-13 18:00:00 TS 14.6000 -80.9000 25 hurdat_atl main 240 214 O_____________ hurdat_atl AL141968 14.6000 -80.9000 TD 25 -1 9 327
1968288N14280 1968 104 NA CS GLADYS 1968-10-13 21:00:00 TS 14.9925 -81.1574 main 204 185 P_____________ AL141968 14.9925 -81.1574 TD 25 -1 9 329
1968288N14280 1968 104 NA CS GLADYS 1968-10-14 00:00:00 TS 15.4000 -81.4000 25 hurdat_atl main 187 178 O_____________ hurdat_atl AL141968 15.4000 -81.4000 TD 25 -1 9 333
1968288N14280 1968 104 NA CS GLADYS 1968-10-14 03:00:00 TS 15.7574 -81.5651 main 184 184 P_____________ AL141968 15.7574 -81.5651 TD 25 -1 8 338
1968288N14280 1968 104 NA CS GLADYS 1968-10-14 06:00:00 TS 16.1000 -81.7000 25 hurdat_atl main 194 193 O_____________ hurdat_atl AL141968 16.1000 -81.7000 TD 25 -1 7 339
1968288N14280 1968 104 NA CS GLADYS 1968-10-14 09:00:00 TS 16.4500 -81.8426 main 209 209 P_____________ AL141968 16.4500 -81.8426 TD 25 -1 8 338
1968288N14280 1968 104 NA CS GLADYS 1968-10-14 12:00:00 TS 16.8000 -82.0000 25 hurdat_atl main 224 224 O_____________ hurdat_atl AL141968 16.8000 -82.0000 TD 25 -1 8 334
1968288N14280 1968 104 NA CS GLADYS 1968-10-14 15:00:00 TS 17.1425 -82.2000 main 238 238 P_____________ AL141968 17.1425 -82.2000 TD 27 -1 8 331
1968288N14280 1968 104 NA CS GLADYS 1968-10-14 18:00:00 TS 17.5000 -82.4000 30 hurdat_atl main 268 268 O_____________ hurdat_atl AL141968 17.5000 -82.4000 TD 30 -1 8 336
1968288N14280 1968 104 NA CS GLADYS 1968-10-14 21:00:00 TS 17.9075 -82.5576 main 296 296 P_____________ AL141968 17.9075 -82.5576 TD 30 -1 9 340
1968288N14280 1968 104 NA CS GLADYS 1968-10-15 00:00:00 TS 18.3000 -82.7000 30 1003 hurdat_atl main 327 313 O_____________ hurdat_atl AL141968 18.3000 -82.7000 TD 30 1003 -1 8 339
1968288N14280 1968 104 NA CS GLADYS 1968-10-15 03:00:00 TS 18.6225 -82.8501 main 313 280 P_____________ AL141968 18.6225 -82.8501 TD 30 1002 -1 7 335
1968288N14280 1968 104 NA CS GLADYS 1968-10-15 06:00:00 TS 18.9000 -83.0000 30 hurdat_atl main 280 259 I_____________ hurdat_atl AL141968 18.9000 -83.0000 TD 30 1001 -1 6 331
1968288N14280 1968 104 NA CS GLADYS 1968-10-15 09:00:00 TS 19.1575 -83.1650 main 249 229 P_____________ AL141968 19.1575 -83.1650 TD 37 1000 0 6 330
1968288N14280 1968 104 NA CS GLADYS 1968-10-15 12:00:00 TS 19.4000 -83.3000 45 999 hurdat_atl main 229 207 O_____________ hurdat_atl AL141968 19.4000 -83.3000 TS 45 999 0 5 339
1968288N14280 1968 104 NA CS GLADYS 1968-10-15 15:00:00 TS 19.6425 -83.3651 main 210 178 P_____________ AL141968 19.6425 -83.3651 TS 47 996 0 5 349
1968288N14280 1968 104 NA CS GLADYS 1968-10-15 18:00:00 TS 19.9000 -83.4000 50 994 hurdat_atl main 178 147 O_____________ hurdat_atl AL141968 19.9000 -83.4000 TS 50 994 0 6 352
1968288N14280 1968 104 NA CS GLADYS 1968-10-15 21:00:00 TS 20.1925 -83.4500 main 152 123 P_____________ AL141968 20.1925 -83.4500 TS 50 0 6 351
1968288N14280 1968 104 NA CS GLADYS 1968-10-16 00:00:00 TS 20.5000 -83.5000 50 hurdat_atl main 123 99 O_____________ hurdat_atl AL141968 20.5000 -83.5000 TS 50 0 6 350
1968288N14280 1968 104 NA CS GLADYS 1968-10-16 03:00:00 TS 20.8000 -83.5649 main 99 76 P_____________ AL141968 20.8000 -83.5649 TS 52 0 6 351
1968288N14280 1968 104 NA CS GLADYS 1968-10-16 06:00:00 TS 21.1000 -83.6000 55 hurdat_atl main 76 66 O_____________ hurdat_atl AL141968 21.1000 -83.6000 TS 55 0 6 0
1968288N14280 1968 104 NA CS GLADYS 1968-10-16 09:00:00 TS 21.3475 -83.5724 main 66 42 P_____________ AL141968 21.3475 -83.5724 TS 60 0 6 9
1968288N14280 1968 104 NA CS GLADYS 1968-10-16 12:00:00 TS 21.7000 -83.5000 65 996 hurdat_atl main 42 0 O_____________ hurdat_atl AL141968 21.7000 -83.5000 HU 65 996 1 10 10
1968288N14280 1968 104 NA NA GLADYS 1968-10-16 15:00:00 TS 22.2975 -83.3928 main 0 0 P_____________ AL141968 22.2975 -83.3928 HU 65 994 1 13 8
1968288N14280 1968 104 NA GM GLADYS 1968-10-16 18:00:00 TS 23.0000 -83.3000 65 hurdat_atl main 11 11 I_____________ hurdat_atl AL141968 23.0000 -83.3000 HU 65 993 1 14 5
1968288N14280 1968 104 NA GM GLADYS 1968-10-16 21:00:00 TS 23.6874 -83.2551 main 89 89 P_____________ AL141968 23.6874 -83.2551 HU 65 991 1 13 1
1968288N14280 1968 104 NA GM GLADYS 1968-10-17 00:00:00 TS 24.3000 -83.3000 65 990 hurdat_atl main 153 153 O_____________ hurdat_atl AL141968 24.3000 -83.3000 HU 65 990 1 11 349
1968288N14280 1968 104 NA GM GLADYS 1968-10-17 03:00:00 TS 24.7451 -83.4773 main 201 201 P_____________ AL141968 24.7451 -83.4773 HU 65 989 1 9 336
1968288N14280 1968 104 NA GM GLADYS 1968-10-17 06:00:00 TS 25.1000 -83.7000 65 hurdat_atl main 219 214 I_____________ hurdat_atl AL141968 25.1000 -83.7000 HU 65 988 1 8 334
1968288N14280 1968 104 NA GM GLADYS 1968-10-17 09:00:00 TS 25.4725 -83.8725 main 215 202 P_____________ AL141968 25.4725 -83.8725 HU 65 987 1 8 339
1968288N14280 1968 104 NA GM GLADYS 1968-10-17 12:00:00 TS 25.8000 -84.0000 65 986 hurdat_atl main 202 191 O_____________ hurdat_atl AL141968 25.8000 -84.0000 HU 65 986 1 6 344
1968288N14280 1968 104 NA GM GLADYS 1968-10-17 15:00:00 TS 26.0725 -84.0651 main 195 185 P_____________ AL141968 26.0725 -84.0651 HU 65 986 1 5 350
1968288N14280 1968 104 NA GM GLADYS 1968-10-17 18:00:00 TS 26.3000 -84.1000 65 986 hurdat_atl main 185 173 O_____________ hurdat_atl AL141968 26.3000 -84.1000 HU 65 986 1 5 350
1968288N14280 1968 104 NA GM GLADYS 1968-10-17 21:00:00 TS 26.5150 -84.1575 main 181 171 P_____________ AL141968 26.5150 -84.1575 HU 65 988 1 4 348
1968288N14280 1968 104 NA GM GLADYS 1968-10-18 00:00:00 TS 26.7000 -84.2000 65 990 hurdat_atl main 171 167 O_____________ hurdat_atl AL141968 26.7000 -84.2000 HU 65 990 1 3 350
1968288N14280 1968 104 NA GM GLADYS 1968-10-18 03:00:00 TS 26.8500 -84.2150 main 167 161 P_____________ AL141968 26.8500 -84.2150 HU 65 987 1 3 0
1968288N14280 1968 104 NA GM GLADYS 1968-10-18 06:00:00 TS 27.0000 -84.2000 65 hurdat_atl main 161 150 I_____________ hurdat_atl AL141968 27.0000 -84.2000 HU 65 985 1 3 7
1968288N14280 1968 104 NA GM GLADYS 1968-10-18 09:00:00 TS 27.1925 -84.1799 main 150 130 P_____________ AL141968 27.1925 -84.1799 HU 67 982 1 4 12
1968288N14280 1968 104 NA GM GLADYS 1968-10-18 12:00:00 TS 27.4000 -84.1000 70 980 hurdat_atl main 130 103 O_____________ hurdat_atl AL141968 27.4000 -84.1000 HU 70 980 1 5 28
1968288N14280 1968 104 NA GM GLADYS 1968-10-18 15:00:00 TS 27.5925 -83.9374 main 103 79 P_____________ AL141968 27.5925 -83.9374 HU 70 979 1 5 41
1968288N14280 1968 104 NA GM GLADYS 1968-10-18 18:00:00 TS 27.8000 -83.7000 70 hurdat_atl main 79 50 I_____________ hurdat_atl AL141968 27.8000 -83.7000 HU 70 978 1 6 46
1968288N14280 1968 104 NA GM GLADYS 1968-10-18 21:00:00 TS 28.0350 -83.4149 main 50 36 P_____________ AL141968 28.0350 -83.4149 HU 70 977 1 7 47
1968288N14280 1968 104 NA GM GLADYS 1968-10-19 00:00:00 TS 28.3000 -83.1000 70 977 hurdat_atl main 36 29 O_____________ hurdat_atl AL141968 28.3000 -83.1000 HU 70 977 1 7 43
1968288N14280 1968 104 NA GM GLADYS 1968-10-19 03:00:00 TS 28.5543 -82.8661 main 29 0 P_____________ AL141968 28.5543 -82.8661 HU 70 977 1 8 41
1968288N14280 1968 104 NA NA GLADYS 1968-10-19 06:00:00 TS 28.9000 -82.5000 70 978 hurdat_atl main 0 0 O_____________ hurdat_atl AL141968 28.9000 -82.5000 HU 70 978 1 13 48
1968288N14280 1968 104 NA NA GLADYS 1968-10-19 09:00:00 TS 29.3983 -81.8031 main 0 0 P_____________ AL141968 29.3983 -81.8031 HU 70 971 1 17 50
1968288N14280 1968 104 NA NA GLADYS 1968-10-19 12:00:00 TS 30.0000 -81.0000 70 965 hurdat_atl main 36 36 O_____________ hurdat_atl AL141968 30.0000 -81.0000 HU 70 965 1 18 46
1968288N14280 1968 104 NA NA GLADYS 1968-10-19 15:00:00 TS 30.6117 -80.3483 main 105 105 P_____________ AL141968 30.6117 -80.3483 HU 72 965 1 17 41
1968288N14280 1968 104 NA NA GLADYS 1968-10-19 18:00:00 TS 31.3000 -79.7000 75 966 hurdat_atl main 131 107 O_____________ hurdat_atl AL141968 31.3000 -79.7000 HU 75 966 1 19 38
1968288N14280 1968 104 NA NA GLADYS 1968-10-19 21:00:00 TS 32.0922 -78.9722 main 107 93 P_____________ AL141968 32.0922 -78.9722 HU 75 970 1 20 38
1968288N14280 1968 104 NA NA GLADYS 1968-10-20 00:00:00 TS 32.9000 -78.2000 75 hurdat_atl main 98 56 I_____________ hurdat_atl AL141968 32.9000 -78.2000 HU 75 975 1 20 40
1968288N14280 1968 104 NA NA GLADYS 1968-10-20 03:00:00 TS 33.6290 -77.4357 main 64 44 P_____________ AL141968 33.6290 -77.4357 HU 72 980 1 19 44
1968288N14280 1968 104 NA NA GLADYS 1968-10-20 06:00:00 TS 34.3000 -76.6000 70 985 hurdat_atl main 44 24 O_____________ hurdat_atl AL141968 34.3000 -76.6000 HU 70 985 1 19 49
1968288N14280 1968 104 NA NA GLADYS 1968-10-20 09:00:00 TS 34.8912 -75.6716 main 54 54 P_____________ AL141968 34.8912 -75.6716 HU 70 984 1 20 54
1968288N14280 1968 104 NA NA GLADYS 1968-10-20 12:00:00 TS 35.5000 -74.6000 70 983 hurdat_atl main 87 87 O_____________ hurdat_atl AL141968 35.5000 -74.6000 HU 70 983 1 23 54
1968288N14280 1968 104 NA NA GLADYS 1968-10-20 15:00:00 TS 36.2170 -73.4239 main 193 193 P_____________ AL141968 36.2170 -73.4239 HU 70 982 1 26 54
1968288N14280 1968 104 NA NA GLADYS 1968-10-20 18:00:00 TS 37.0000 -72.0000 70 981 hurdat_atl main 308 308 O_____________ hurdat_atl AL141968 37.0000 -72.0000 HU 70 981 1 30 59
1968288N14280 1968 104 NA NA GLADYS 1968-10-20 21:00:00 TS 37.7568 -70.2068 main 392 370 P_____________ AL141968 37.7568 -70.2068 HU 67 1 33 61
1968288N14280 1968 104 NA NA GLADYS 1968-10-21 00:00:00 TS 38.6000 -68.3000 65 hurdat_atl main 373 367 O_____________ hurdat_atl AL141968 38.6000 -68.3000 HU 65 1 34 59
1968288N14280 1968 104 NA NA GLADYS 1968-10-21 03:00:00 TS 39.5305 -66.4700 main 382 323 P_____________ AL141968 39.5305 -66.4700 HU 65 1 34 51
1968288N14280 1968 104 NA NA GLADYS 1968-10-21 06:00:00 TS 40.7000 -64.9000 65 hurdat_atl main 313 189 O_____________ hurdat_atl AL141968 40.7000 -64.9000 HU 65 1 34 36
1968288N14280 1968 104 NA NA GLADYS 1968-10-21 09:00:00 TS 42.2958 -63.7851 main 180 86 P_____________ AL141968 42.2958 -63.7851 HU 65 1 35 25
1968288N14280 1968 104 NA NA GLADYS 1968-10-21 12:00:00 ET 43.9000 -62.9000 65 975 hurdat_atl main 78 0 O_____________ hurdat_atl AL141968 43.9000 -62.9000 EX 65 975 -4 31 25
1968288N14280 1968 104 NA NA GLADYS 1968-10-21 15:00:00 ET 45.0904 -61.9794 main 0 0 P_____________ AL141968 45.0904 -61.9794 EX 57 -4 25 33
1968288N14280 1968 104 NA NA GLADYS 1968-10-21 18:00:00 ET 46.0000 -61.0000 50 hurdat_atl main 0 O_____________ hurdat_atl AL141968 46.0000 -61.0000 EX 50 -4 23 37

IBTrACS Databaseについて

本データベースは、米国NOAAが公開する1842年以降の世界の熱帯低気圧のベストトラックデータアーカイブInternational Best Track Archive for Climate Stewardship (IBTrACS)を、ウェブで閲覧しやすい形式に変換したものです。

最終更新日:2021-10-19